Time;durP1;ratioP1;P1;durP2;ratioP2;P2;SDS_P1;SDS_P2;PMS_P1;PMS_P2;Temp;Humidity;BMP_temperature;BMP_pressure;BME280_temperature;BME280_humidity;BME280_pressure;Samples;Min_cycle;Max_cycle;Signal;HPM_P1;HPM_P2
2022/06/05 00:01:36;;;;;;;9.98;5.15;;;15.20;71.30;;;;;;6156163;23;20108;-79
2022/06/05 00:04:34;;;;;;;8.80;4.53;;;15.20;71.90;;;;;;6157908;23;20479;-79
2022/06/05 00:07:31;;;;;;;13.10;5.35;;;15.20;71.90;;;;;;6158575;23;20026;-79
2022/06/05 00:10:15;;;;;;;10.05;4.95;;;15.10;71.80;;;;;;6158149;23;20036;-79
2022/06/05 00:12:48;;;;;;;10.45;5.50;;;15.10;72.10;;;;;;6158425;23;20030;-79
2022/06/05 00:15:15;;;;;;;9.32;5.47;;;15.00;72.30;;;;;;6158939;23;20034;-79
2022/06/05 00:17:41;;;;;;;12.65;5.28;;;15.00;72.40;;;;;;6158070;23;20029;-79
2022/06/05 00:20:09;;;;;;;12.07;5.43;;;15.00;72.70;;;;;;6158415;23;20363;-78
2022/06/05 00:22:38;;;;;;;9.93;5.45;;;15.00;72.90;;;;;;6158421;23;20018;-79
2022/06/05 00:25:07;;;;;;;12.20;5.60;;;14.90;72.90;;;;;;6157719;23;20036;-79
2022/06/05 00:27:48;;;;;;;12.52;6.03;;;14.90;73.10;;;;;;6157851;23;20022;-79
2022/06/05 00:30:56;;;;;;;8.38;5.15;;;14.80;73.30;;;;;;6158975;23;20022;-79
2022/06/05 00:33:36;;;;;;;11.73;5.43;;;14.80;73.40;;;;;;6126071;23;20054;-79
2022/06/05 00:36:11;;;;;;;8.77;5.43;;;14.80;73.60;;;;;;6125027;23;20105;-79
2022/06/05 00:38:48;;;;;;;13.73;5.35;;;14.80;73.30;;;;;;6126031;23;20030;-79
2022/06/05 00:41:42;;;;;;;12.68;5.47;;;14.70;73.60;;;;;;6125972;23;20113;-79
2022/06/05 00:44:13;;;;;;;13.75;6.30;;;14.70;73.90;;;;;;6124877;23;20630;-79
2022/06/05 00:46:41;;;;;;;13.15;5.75;;;14.60;73.80;;;;;;6125872;23;20034;-79
2022/06/05 00:49:10;;;;;;;10.30;5.28;;;14.70;73.70;;;;;;6126041;23;20022;-79
2022/06/05 00:51:37;;;;;;;13.43;5.78;;;14.70;73.60;;;;;;6124581;23;20743;-79
2022/06/05 00:54:04;;;;;;;9.98;5.53;;;14.70;73.50;;;;;;6125768;23;20031;-79
2022/06/05 00:56:31;;;;;;;14.00;6.00;;;14.70;73.70;;;;;;6129384;23;20736;-78
2022/06/05 00:58:58;;;;;;;10.40;5.47;;;14.60;73.80;;;;;;6132906;23;20070;-78
2022/06/05 01:01:25;;;;;;;12.60;6.22;;;14.60;73.90;;;;;;6127228;23;20027;-79
2022/06/05 01:03:52;;;;;;;10.50;5.90;;;14.60;73.80;;;;;;6126880;23;20026;-79
2022/06/05 01:06:19;;;;;;;9.55;5.85;;;14.60;73.80;;;;;;6125859;23;20109;-79
2022/06/05 01:08:46;;;;;;;14.48;6.32;;;14.60;74.10;;;;;;6140611;23;20032;-79
2022/06/05 01:11:31;;;;;;;12.50;6.43;;;14.60;73.90;;;;;;6157537;23;20029;-79
2022/06/05 01:14:31;;;;;;;12.30;6.03;;;14.50;74.10;;;;;;6158538;23;20026;-79
2022/06/05 01:17:22;;;;;;;13.57;5.82;;;14.50;74.20;;;;;;6157720;23;20314;-80
2022/06/05 01:20:01;;;;;;;11.82;6.20;;;14.50;74.50;;;;;;6158241;23;20026;-79
2022/06/05 01:23:01;;;;;;;10.98;6.03;;;14.50;74.20;;;;;;6157834;23;20097;-79
2022/06/05 01:25:51;;;;;;;10.88;6.50;;;14.50;74.10;;;;;;6157952;23;20056;-79
2022/06/05 01:28:23;;;;;;;13.73;6.65;;;14.50;74.50;;;;;;6158047;23;20033;-78
2022/06/05 01:31:00;;;;;;;16.20;6.47;;;14.50;74.60;;;;;;6158079;23;20030;-79
2022/06/05 01:33:28;;;;;;;13.68;6.45;;;14.50;74.30;;;;;;6156052;23;20030;-79
2022/06/05 01:36:07;;;;;;;12.85;7.10;;;14.40;74.60;;;;;;6156872;23;20029;-79
2022/06/05 01:38:36;;;;;;;17.25;6.70;;;14.40;74.60;;;;;;6158335;23;20036;-79
2022/06/05 01:41:14;;;;;;;14.77;6.93;;;14.40;74.90;;;;;;6158521;23;20036;-79
2022/06/05 01:43:47;;;;;;;12.73;6.80;;;14.40;74.80;;;;;;6158226;23;20036;-79
2022/06/05 01:46:20;;;;;;;13.85;7.28;;;14.40;74.90;;;;;;6157747;23;20030;-79
2022/06/05 01:49:02;;;;;;;13.07;6.28;;;14.40;74.90;;;;;;6158274;23;20717;-79
2022/06/05 01:51:44;;;;;;;13.93;6.97;;;14.40;75.20;;;;;;6158217;23;20032;-79
2022/06/05 01:54:19;;;;;;;14.77;7.38;;;14.40;75.30;;;;;;6158151;23;20061;-79
2022/06/05 01:56:51;;;;;;;13.18;6.93;;;14.30;75.30;;;;;;6158744;23;20036;-79
2022/06/05 01:59:36;;;;;;;11.68;6.88;;;14.30;75.60;;;;;;6157238;23;20041;-79
2022/06/05 02:02:07;;;;;;;14.35;8.23;;;14.30;75.70;;;;;;6156378;23;20029;-79
2022/06/05 02:04:42;;;;;;;10.82;7.18;;;14.30;76.00;;;;;;6156777;23;20036;-79
2022/06/05 02:07:16;;;;;;;14.15;7.28;;;14.30;76.00;;;;;;6158721;23;20030;-79
2022/06/05 02:09:54;;;;;;;15.13;7.50;;;14.30;76.00;;;;;;6158933;23;20799;-79
2022/06/05 02:12:21;;;;;;;12.77;7.55;;;14.20;76.00;;;;;;6158550;23;20030;-79
2022/06/05 02:14:48;;;;;;;13.88;7.93;;;14.20;76.40;;;;;;6158154;23;20374;-78
2022/06/05 02:17:15;;;;;;;12.93;7.28;;;14.20;76.60;;;;;;6155541;23;20025;-79
2022/06/05 02:19:44;;;;;;;18.55;7.63;;;14.20;76.40;;;;;;6157906;23;20040;-79
2022/06/05 02:22:24;;;;;;;15.45;8.02;;;14.20;76.70;;;;;;6157479;23;20057;-79
2022/06/05 02:24:53;;;;;;;12.02;7.18;;;14.10;76.80;;;;;;6158120;23;20032;-79
2022/06/05 02:27:22;;;;;;;15.20;7.90;;;14.10;76.80;;;;;;6156371;23;20406;-79
2022/06/05 02:29:50;;;;;;;12.43;7.75;;;14.10;76.60;;;;;;6157229;23;20036;-79
2022/06/05 02:32:23;;;;;;;15.80;8.00;;;14.10;76.70;;;;;;6156846;23;20030;-79
2022/06/05 02:35:09;;;;;;;14.60;8.10;;;14.10;77.10;;;;;;6181309;23;20026;-79
2022/06/05 02:38:05;;;;;;;16.25;7.80;;;14.10;76.90;;;;;;6156797;23;20501;-79
2022/06/05 02:40:52;;;;;;;14.27;8.10;;;14.00;77.20;;;;;;6158391;23;20301;-78
2022/06/05 02:43:43;;;;;;;12.55;7.50;;;14.00;77.30;;;;;;6158300;23;20032;-79
2022/06/05 02:46:22;;;;;;;15.02;7.78;;;14.10;77.20;;;;;;6157856;23;20057;-79
2022/06/05 02:49:10;;;;;;;16.23;8.05;;;14.00;77.40;;;;;;6157706;23;20366;-79
2022/06/05 02:51:43;;;;;;;14.07;7.85;;;14.10;77.20;;;;;;6157924;23;20040;-79
2022/06/05 02:54:21;;;;;;;15.07;8.23;;;14.00;77.40;;;;;;6157879;23;20030;-79
2022/06/05 02:56:48;;;;;;;12.27;7.75;;;14.00;77.50;;;;;;6157985;23;20029;-78
2022/06/05 02:59:15;;;;;;;19.10;8.05;;;14.00;77.40;;;;;;6157220;23;20348;-79
2022/06/05 03:04:28;;;;;;;18.02;8.05;;;13.90;77.60;;;;;;6157396;23;20602;-79
2022/06/05 03:06:55;;;;;;;15.40;7.97;;;13.90;77.70;;;;;;6156743;23;20022;-79
2022/06/05 03:09:22;;;;;;;12.43;7.70;;;13.90;78.00;;;;;;6157491;23;20061;-79
2022/06/05 03:11:48;;;;;;;12.73;7.80;;;13.80;78.00;;;;;;6156903;23;20825;-80
2022/06/05 03:14:15;;;;;;;15.45;8.05;;;13.80;78.20;;;;;;6156026;23;20026;-79
2022/06/05 03:16:42;;;;;;;13.80;8.10;;;13.80;78.00;;;;;;6157194;23;20028;-79
2022/06/05 03:19:09;;;;;;;15.52;8.70;;;13.70;78.50;;;;;;6157127;23;20059;-79
2022/06/05 03:21:37;;;;;;;11.98;8.27;;;13.60;78.60;;;;;;6157315;23;20036;-79
2022/06/05 03:24:05;;;;;;;12.88;8.45;;;13.60;78.80;;;;;;6156696;23;20026;-79
2022/06/05 03:26:33;;;;;;;13.77;8.50;;;13.60;79.10;;;;;;6156920;23;20025;-79
2022/06/05 03:28:59;;;;;;;18.65;8.63;;;13.50;78.90;;;;;;6155937;23;20507;-79
2022/06/05 03:31:26;;;;;;;13.82;8.52;;;13.50;79.10;;;;;;6155917;23;20774;-79
2022/06/05 03:33:53;;;;;;;15.40;9.07;;;13.50;79.50;;;;;;6156948;23;20089;-79
2022/06/05 03:36:20;;;;;;;15.20;8.82;;;13.50;79.60;;;;;;6157608;23;20049;-79
2022/06/05 03:38:46;;;;;;;14.07;9.25;;;13.40;79.70;;;;;;6157620;23;20033;-79
2022/06/05 03:41:15;;;;;;;19.08;9.13;;;13.40;79.90;;;;;;6158555;23;20026;-79
2022/06/05 03:43:43;;;;;;;14.63;8.90;;;13.40;79.70;;;;;;6158237;23;20825;-79
2022/06/05 03:46:12;;;;;;;15.23;9.02;;;13.40;79.70;;;;;;6158751;23;20101;-79
2022/06/05 03:48:40;;;;;;;14.40;8.93;;;13.40;79.50;;;;;;6158077;23;20050;-79
2022/06/05 03:51:18;;;;;;;14.65;8.80;;;13.40;79.70;;;;;;6181475;23;20041;-79
2022/06/05 03:53:45;;;;;;;15.05;9.15;;;13.40;79.80;;;;;;6157660;23;20022;-79
2022/06/05 03:56:15;;;;;;;16.95;9.20;;;13.40;79.80;;;;;;6158041;23;20026;-79
2022/06/05 03:58:43;;;;;;;15.15;8.68;;;13.40;79.90;;;;;;6158629;23;20151;-79
2022/06/05 04:01:11;;;;;;;15.82;8.95;;;13.40;79.90;;;;;;6158406;23;20025;-79
2022/06/05 04:03:38;;;;;;;15.90;8.80;;;13.40;79.70;;;;;;6158164;23;20026;-79
2022/06/05 04:06:15;;;;;;;15.82;9.32;;;13.40;79.90;;;;;;6158635;23;20081;-79
2022/06/05 04:08:42;;;;;;;15.48;9.10;;;13.50;79.90;;;;;;6158298;23;20021;-79
2022/06/05 04:11:16;;;;;;;21.98;9.02;;;13.50;79.90;;;;;;6158629;23;20030;-79
2022/06/05 04:13:44;;;;;;;16.90;9.50;;;13.50;79.60;;;;;;6158394;23;20084;-79
2022/06/05 04:16:19;;;;;;;16.48;9.70;;;13.50;79.70;;;;;;6158393;23;20029;-79
2022/06/05 04:18:47;;;;;;;16.80;9.30;;;13.60;79.70;;;;;;6157518;23;20026;-79
2022/06/05 04:21:25;;;;;;;14.65;9.38;;;13.60;79.70;;;;;;6158588;23;20487;-79
2022/06/05 04:23:53;;;;;;;17.33;9.20;;;13.60;79.60;;;;;;6158195;23;20030;-79
2022/06/05 04:26:27;;;;;;;18.52;9.40;;;13.70;79.30;;;;;;6158384;23;20114;-79
2022/06/05 04:28:54;;;;;;;25.08;9.60;;;13.70;79.20;;;;;;6157970;23;20026;-79
2022/06/05 04:31:22;;;;;;;18.23;9.68;;;13.70;79.30;;;;;;6158291;23;20434;-79
2022/06/05 04:33:50;;;;;;;15.70;9.43;;;13.80;79.00;;;;;;6157429;23;20026;-79
2022/06/05 04:36:18;;;;;;;15.07;9.98;;;13.80;78.80;;;;;;6158580;23;20666;-79
2022/06/05 04:38:45;;;;;;;13.63;8.88;;;13.80;78.80;;;;;;6158044;23;20022;-79
2022/06/05 04:41:12;;;;;;;17.80;10.27;;;13.80;78.70;;;;;;6158589;23;20755;-79
2022/06/05 04:43:38;;;;;;;15.35;10.30;;;13.80;78.60;;;;;;6156158;23;20101;-79
2022/06/05 04:46:06;;;;;;;14.57;9.55;;;13.80;79.10;;;;;;6158138;23;20131;-79
2022/06/05 04:48:34;;;;;;;18.50;10.00;;;13.70;79.00;;;;;;6157605;23;20428;-79
2022/06/05 04:51:08;;;;;;;16.73;10.00;;;13.70;79.20;;;;;;6157628;23;20036;-79
2022/06/05 04:53:35;;;;;;;16.25;9.98;;;13.70;79.20;;;;;;6158747;23;20022;-79
2022/06/05 04:56:18;;;;;;;18.17;10.32;;;13.70;79.40;;;;;;6158498;23;20022;-79
2022/06/05 04:58:45;;;;;;;17.27;9.73;;;13.80;79.20;;;;;;6158741;23;20113;-79
2022/06/05 05:01:21;;;;;;;17.48;10.52;;;13.80;79.20;;;;;;6158402;23;20029;-79
2022/06/05 05:03:52;;;;;;;20.27;11.30;;;13.80;79.30;;;;;;6157871;23;20040;-79
2022/06/05 05:06:19;;;;;;;19.17;10.43;;;13.80;79.20;;;;;;6158694;23;20030;-80
2022/06/05 05:08:45;;;;;;;16.38;10.35;;;13.80;79.10;;;;;;6157829;23;20026;-79
2022/06/05 05:11:12;;;;;;;16.88;10.50;;;13.80;79.30;;;;;;6158301;23;20022;-79
2022/06/05 05:13:39;;;;;;;15.50;9.95;;;13.90;79.20;;;;;;6158770;23;20029;-79
2022/06/05 05:16:07;;;;;;;16.67;10.52;;;13.80;79.00;;;;;;6158346;23;20030;-79
2022/06/05 05:18:34;;;;;;;16.52;10.07;;;13.90;79.30;;;;;;6157648;23;20156;-79
2022/06/05 05:21:13;;;;;;;25.00;11.20;;;13.90;79.20;;;;;;6158384;23;20036;-79
2022/06/05 05:23:41;;;;;;;19.92;10.98;;;14.00;79.10;;;;;;6157756;23;20025;-79
2022/06/05 05:26:14;;;;;;;17.88;10.32;;;14.00;79.10;;;;;;6158211;23;20799;-79
2022/06/05 05:28:42;;;;;;;18.02;10.52;;;14.00;78.70;;;;;;6157064;23;20038;-79
2022/06/05 05:31:17;;;;;;;18.48;10.25;;;14.00;78.70;;;;;;6158388;23;20808;-79
2022/06/05 05:33:46;;;;;;;18.08;10.20;;;14.10;78.60;;;;;;6156692;23;20615;-79
2022/06/05 05:36:13;;;;;;;14.05;9.82;;;14.10;78.60;;;;;;6157450;23;20483;-79
2022/06/05 05:42:04;;;;;;;17.55;11.23;;;14.20;78.70;;;;;;6157867;23;20029;-79
2022/06/05 05:44:13;;;;;;;17.92;9.40;;;14.20;78.20;;;;;;6157433;23;20037;-79
2022/06/05 05:46:41;;;;;;;17.65;10.30;;;14.30;78.10;;;;;;6157368;23;20021;-79
2022/06/05 05:49:10;;;;;;;18.95;10.35;;;14.30;78.10;;;;;;6157026;23;20022;-79
2022/06/05 05:51:37;;;;;;;17.95;10.70;;;14.40;77.80;;;;;;6155993;23;20030;-79
2022/06/05 05:54:04;;;;;;;16.27;11.02;;;14.40;77.70;;;;;;6158249;23;20028;-79
2022/06/05 05:56:32;;;;;;;17.52;10.52;;;14.40;77.80;;;;;;6158149;23;20032;-79
2022/06/05 05:58:58;;;;;;;18.60;10.38;;;14.50;77.60;;;;;;6157616;23;20091;-79
2022/06/05 06:01:26;;;;;;;16.52;9.95;;;14.50;77.50;;;;;;6157833;23;20030;-79
2022/06/05 06:03:53;;;;;;;15.73;10.82;;;14.60;77.30;;;;;;6157475;23;20026;-79
2022/06/05 06:06:25;;;;;;;16.58;10.60;;;14.60;77.10;;;;;;6158537;23;20121;-79
2022/06/05 06:08:53;;;;;;;19.80;10.82;;;14.60;77.10;;;;;;6157739;23;20543;-79
2022/06/05 06:11:20;;;;;;;14.98;10.05;;;14.60;77.40;;;;;;6158113;23;20037;-79
2022/06/05 06:13:47;;;;;;;15.13;9.90;;;14.70;77.20;;;;;;6157555;23;20462;-79
2022/06/05 06:16:13;;;;;;;20.52;10.80;;;14.70;76.80;;;;;;6157001;23;20022;-79
2022/06/05 06:18:40;;;;;;;15.07;10.80;;;14.80;77.10;;;;;;6156944;23;20032;-79
2022/06/05 06:21:07;;;;;;;16.95;11.00;;;14.80;77.00;;;;;;6157950;23;20821;-79
2022/06/05 06:23:34;;;;;;;14.90;10.63;;;14.80;76.80;;;;;;6156399;23;20026;-79
2022/06/05 06:26:08;;;;;;;18.05;10.25;;;14.90;76.30;;;;;;6158060;23;20097;-79
2022/06/05 06:28:34;;;;;;;17.38;10.43;;;14.90;76.30;;;;;;6156709;23;20030;-79
2022/06/05 06:31:10;;;;;;;17.52;10.38;;;14.90;76.50;;;;;;6155767;23;20026;-79
2022/06/05 06:33:38;;;;;;;17.52;10.57;;;14.90;76.30;;;;;;6157319;23;20026;-79
2022/06/05 06:36:09;;;;;;;16.00;9.95;;;15.00;76.20;;;;;;6180966;23;20056;-79
2022/06/05 06:38:56;;;;;;;16.67;10.02;;;15.00;75.90;;;;;;6157915;23;20029;-79
2022/06/05 06:41:23;;;;;;;15.43;10.15;;;15.00;75.90;;;;;;6158139;23;20037;-79
2022/06/05 06:43:50;;;;;;;18.33;9.90;;;15.10;76.00;;;;;;6157646;23;20109;-79
2022/06/05 06:46:18;;;;;;;18.27;9.60;;;15.10;75.90;;;;;;6157353;23;20050;-79
2022/06/05 06:48:45;;;;;;;16.30;9.60;;;15.20;75.50;;;;;;6157577;23;20463;-79
2022/06/05 06:51:13;;;;;;;14.93;9.80;;;15.20;75.80;;;;;;6158270;23;20758;-79
2022/06/05 06:53:41;;;;;;;20.95;9.73;;;15.20;75.70;;;;;;6157901;23;20029;-79
2022/06/05 06:56:14;;;;;;;16.23;9.70;;;15.20;75.80;;;;;;6158108;23;20040;-79
2022/06/05 06:58:42;;;;;;;14.50;9.48;;;15.30;75.80;;;;;;6158118;23;20028;-79
2022/06/05 07:01:10;;;;;;;18.02;10.43;;;15.30;75.90;;;;;;6157885;23;20030;-79
2022/06/05 07:03:37;;;;;;;13.65;9.38;;;15.40;75.30;;;;;;6158129;23;20778;-79
2022/06/05 07:06:09;;;;;;;15.77;9.75;;;15.40;75.20;;;;;;6157405;23;20045;-79
2022/06/05 07:08:36;;;;;;;14.18;9.95;;;15.40;75.20;;;;;;6157756;23;20022;-79
2022/06/05 07:11:07;;;;;;;15.13;9.63;;;15.50;75.30;;;;;;6158023;23;20635;-79
2022/06/05 07:13:35;;;;;;;20.52;10.23;;;15.50;75.00;;;;;;6157412;23;20539;-79
2022/06/05 07:16:06;;;;;;;18.20;9.98;;;15.60;74.80;;;;;;6181996;23;20030;-79
2022/06/05 07:18:33;;;;;;;15.82;9.57;;;15.70;74.60;;;;;;6158843;23;20742;-79
2022/06/05 07:21:08;;;;;;;16.48;9.75;;;15.80;74.20;;;;;;6157968;23;20030;-79
2022/06/05 07:23:35;;;;;;;14.25;9.45;;;16.00;74.10;;;;;;6157952;23;20034;-79
2022/06/05 07:26:02;;;;;;;13.15;9.27;;;16.10;74.10;;;;;;6158736;23;20056;-79
2022/06/05 07:28:29;;;;;;;14.70;9.10;;;16.30;73.40;;;;;;6157033;23;20112;-79
2022/06/05 07:30:56;;;;;;;15.57;9.20;;;16.40;73.00;;;;;;6157201;23;20064;-79
2022/06/05 07:33:23;;;;;;;12.85;8.63;;;16.50;72.20;;;;;;6157618;23;20085;-79
2022/06/05 07:36:03;;;;;;;14.23;9.07;;;16.60;72.30;;;;;;6155179;23;20105;-79
2022/06/05 07:38:32;;;;;;;15.65;9.63;;;16.70;71.80;;;;;;6156992;23;20064;-79
2022/06/05 07:40:59;;;;;;;15.73;8.63;;;16.80;72.50;;;;;;6157879;23;20421;-79
2022/06/05 07:43:26;;;;;;;16.63;9.88;;;17.00;71.90;;;;;;6157020;23;20022;-79
2022/06/05 07:45:52;;;;;;;13.73;8.75;;;17.10;71.90;;;;;;6158662;23;20026;-79
2022/06/05 07:48:19;;;;;;;15.35;9.10;;;17.30;70.80;;;;;;6180358;23;20807;-79
2022/06/05 07:56:31;;;;;;;13.13;8.95;;;17.70;68.80;;;;;;6157583;23;20133;-80
2022/06/05 07:58:58;;;;;;;12.98;8.65;;;17.80;68.70;;;;;;6154793;23;20030;-79
2022/06/05 08:01:45;;;;;;;18.42;8.35;;;18.00;68.20;;;;;;6157618;23;20613;-79
2022/06/05 08:04:12;;;;;;;15.57;8.68;;;18.20;67.30;;;;;;6156964;23;20073;-80
2022/06/05 08:06:39;;;;;;;11.38;8.30;;;18.40;67.00;;;;;;6157823;23;20476;-79
2022/06/05 08:09:07;;;;;;;12.90;8.00;;;18.60;66.60;;;;;;6155886;23;20810;-80
2022/06/05 08:11:35;;;;;;;14.13;8.65;;;18.90;66.20;;;;;;6157289;23;20030;-80
2022/06/05 08:14:03;;;;;;;14.18;7.97;;;19.20;65.30;;;;;;6156907;23;20158;-79
2022/06/05 08:16:30;;;;;;;10.82;7.85;;;19.50;63.60;;;;;;6158413;23;20028;-80
2022/06/05 08:18:57;;;;;;;17.60;8.52;;;19.70;63.30;;;;;;6160973;23;20046;-80
2022/06/05 08:21:24;;;;;;;14.88;8.07;;;19.80;62.20;;;;;;6157830;23;20038;-80
2022/06/05 08:23:50;;;;;;;11.38;7.55;;;19.90;62.50;;;;;;6157481;23;20025;-80
2022/06/05 08:26:17;;;;;;;15.35;7.28;;;20.20;62.40;;;;;;6162615;23;20022;-80
2022/06/05 08:28:44;;;;;;;14.40;7.82;;;20.50;61.20;;;;;;6162754;23;20070;-80
2022/06/05 08:31:11;;;;;;;10.95;7.05;;;20.80;59.80;;;;;;6161153;23;20042;-80
2022/06/05 08:33:38;;;;;;;17.08;7.80;;;21.20;59.70;;;;;;6157579;23;20022;-80
2022/06/05 08:36:05;;;;;;;8.55;7.15;;;21.40;58.60;;;;;;6159467;23;20073;-80
2022/06/05 08:41:43;;;;;;;12.85;7.57;;;21.70;58.30;;;;;;6158834;23;20014;-80
2022/06/05 08:44:28;;;;;;;11.82;7.15;;;22.10;57.90;;;;;;6156156;23;20539;-79
2022/06/05 08:47:13;;;;;;;9.75;7.00;;;22.40;57.80;;;;;;6156462;23;20026;-80
2022/06/05 08:49:45;;;;;;;11.93;7.20;;;22.70;55.80;;;;;;6156812;23;20026;-79
2022/06/05 08:52:27;;;;;;;11.07;7.18;;;22.70;55.40;;;;;;6181602;23;20092;-80
2022/06/05 08:55:31;;;;;;;9.70;6.65;;;22.80;57.00;;;;;;6157216;23;20022;-79
2022/06/05 08:58:16;;;;;;;11.35;6.57;;;23.00;56.80;;;;;;6152251;23;20030;-78
2022/06/05 09:00:47;;;;;;;10.02;6.53;;;23.00;55.80;;;;;;6156000;23;20837;-78
2022/06/05 09:03:26;;;;;;;11.02;6.28;;;23.00;55.20;;;;;;6156209;23;20029;-78
2022/06/05 09:05:58;;;;;;;10.60;6.63;;;22.90;55.80;;;;;;6158188;23;20026;-78
2022/06/05 09:08:34;;;;;;;10.43;6.40;;;22.80;54.40;;;;;;6157873;23;20100;-79
2022/06/05 09:11:06;;;;;;;12.25;6.65;;;22.70;54.40;;;;;;6152961;23;20044;-80
2022/06/05 09:13:50;;;;;;;13.00;6.55;;;22.70;54.80;;;;;;6154139;23;20037;-80
2022/06/05 09:16:24;;;;;;;10.50;6.60;;;22.70;55.50;;;;;;6154249;23;20036;-80
2022/06/05 09:18:52;;;;;;;9.57;6.75;;;22.60;54.80;;;;;;6152938;23;20025;-83
2022/06/05 09:21:34;;;;;;;10.88;6.03;;;22.50;54.60;;;;;;6153313;23;20093;-81
2022/06/05 09:24:14;;;;;;;8.73;6.50;;;22.60;56.60;;;;;;6154384;23;20719;-79
2022/06/05 09:26:55;;;;;;;10.75;6.60;;;22.70;56.50;;;;;;6158589;23;20033;-80
2022/06/05 09:29:44;;;;;;;8.52;6.40;;;22.80;56.80;;;;;;6158097;23;20994;-80
2022/06/05 09:32:30;;;;;;;9.40;6.35;;;22.90;54.80;;;;;;6158690;23;20026;-81
2022/06/05 09:35:02;;;;;;;10.23;6.35;;;23.00;55.00;;;;;;6159721;23;20033;-81
2022/06/05 09:37:39;;;;;;;;;;;23.00;54.60;;;;;;6159600;23;20018;-81
2022/06/05 09:40:23;;;;;;;13.20;5.97;;;23.00;54.90;;;;;;6159545;23;20596;-80
2022/06/05 09:43:15;;;;;;;8.15;6.18;;;23.10;55.30;;;;;;6159084;23;20026;-80
2022/06/05 09:46:09;;;;;;;11.10;6.10;;;23.20;55.70;;;;;;6157190;23;20037;-80
2022/06/05 09:49:02;;;;;;;9.13;5.93;;;23.20;55.40;;;;;;6157282;23;20059;-80
2022/06/05 09:51:35;;;;;;;8.00;5.63;;;23.00;57.30;;;;;;6151238;23;20108;-80
2022/06/05 09:54:21;;;;;;;7.95;5.50;;;23.30;55.30;;;;;;6182046;23;20022;-80
2022/06/05 09:59:46;;;;;;;11.82;5.38;;;23.70;54.70;;;;;;6158258;23;20097;-81
2022/06/05 10:02:15;;;;;;;7.53;5.20;;;23.70;56.50;;;;;;6164906;23;20026;-81
2022/06/05 10:04:44;;;;;;;9.20;5.38;;;23.70;55.40;;;;;;6169667;23;20041;-82
2022/06/05 10:07:43;;;;;;;7.47;5.45;;;23.60;56.60;;;;;;6167461;23;20010;-81
2022/06/05 10:10:25;;;;;;;8.25;4.95;;;23.70;56.50;;;;;;6191432;23;20022;-78
2022/06/05 10:13:03;;;;;;;10.65;5.25;;;23.70;56.70;;;;;;6168891;23;20029;-81
2022/06/05 10:15:59;;;;;;;7.75;4.95;;;23.90;56.40;;;;;;6171476;23;20906;-79
2022/06/05 10:19:10;;;;;;;11.77;5.13;;;24.00;56.80;;;;;;6173032;23;20010;-81
2022/06/05 10:21:49;;;;;;;8.98;4.90;;;24.10;55.70;;;;;;6169121;23;20101;-81
2022/06/05 10:24:19;;;;;;;6.55;4.60;;;24.00;56.60;;;;;;6178365;23;20029;-82
2022/06/05 10:26:48;;;;;;;6.32;4.82;;;24.10;56.40;;;;;;6169334;23;20452;-81
2022/06/05 10:29:37;;;;;;;8.25;5.07;;;24.10;56.10;;;;;;6165693;23;20062;-82
2022/06/05 10:32:13;;;;;;;7.07;5.13;;;24.10;57.40;;;;;;6155709;23;20026;-81
2022/06/05 10:34:59;;;;;;;23.95;5.57;;;24.10;55.60;;;;;;6157778;23;20036;-81
2022/06/05 10:37:49;;;;;;;18.52;5.03;;;24.20;54.90;;;;;;6157585;23;20113;-80
2022/06/05 10:40:19;;;;;;;10.32;4.45;;;24.20;55.30;;;;;;6155130;23;20060;-81
2022/06/05 10:43:03;;;;;;;6.88;4.80;;;24.00;55.60;;;;;;6158145;23;20933;-80
2022/06/05 10:45:52;;;;;;;7.55;4.90;;;23.80;55.20;;;;;;6159757;23;20022;-81
2022/06/05 10:48:28;;;;;;;9.45;4.80;;;23.80;55.80;;;;;;6154600;23;20124;-80
2022/06/05 10:51:16;;;;;;;8.98;5.10;;;23.70;55.10;;;;;;6155291;23;20045;-80
2022/06/05 10:53:51;;;;;;;10.52;5.43;;;23.70;56.40;;;;;;6159887;23;20790;-80
2022/06/05 10:56:58;;;;;;;10.02;5.30;;;23.70;55.80;;;;;;6158396;23;20746;-79
2022/06/05 10:59:48;;;;;;;8.23;5.30;;;23.60;58.00;;;;;;6154853;23;20029;-80
2022/06/05 11:02:15;;;;;;;7.70;5.47;;;;;;;;;;6162177;23;20421;-83
2022/06/05 11:04:49;;;;;;;7.97;5.63;;;;;;;;;;6159872;23;20460;-84
2022/06/05 11:07:29;;;;;;;7.72;6.00;;;;;;;;;;6159723;23;20376;-84
2022/06/05 11:10:03;;;;;;;10.45;6.20;;;;;;;;;;6159311;23;20109;-83
2022/06/05 11:13:44;;;;;;;13.55;6.40;;;;;;;;;;6158721;23;20030;-83
2022/06/05 11:15:53;;;;;;;11.27;6.85;;;;;;;;;;6167813;23;20762;-83
2022/06/05 11:18:43;;;;;;;8.48;6.40;;;;;;;;;;6158050;23;20093;-83
2022/06/05 11:21:14;;;;;;;8.77;6.70;;;;;;;;;;6156974;23;20030;-82
2022/06/05 11:23:50;;;;;;;11.65;6.75;;;;;;;;;;6159761;23;20029;-83
2022/06/05 11:26:34;;;;;;;10.02;6.57;;;;;;;;;;6161193;23;20021;-83
2022/06/05 11:29:22;;;;;;;9.80;5.80;;;;;;;;;;6162636;23;20113;-82
2022/06/05 11:31:50;;;;;;;9.98;6.47;;;;;;;;;;6162395;23;20034;-82
2022/06/05 11:34:43;;;;;;;6.95;5.43;;;;;;;;;;6162743;23;20030;-85
2022/06/05 11:37:13;;;;;;;10.55;6.50;;;;;;;;;;6161649;23;20826;-82
2022/06/05 11:39:50;;;;;;;10.90;5.93;;;;;;;;;;6161763;23;20048;-85
2022/06/05 11:42:45;;;;;;;10.68;5.65;;;;;;;;;;6161109;23;20036;-81
2022/06/05 11:45:15;;;;;;;9.05;5.68;;;;;;;;;;6157957;23;20807;-82
2022/06/05 11:47:55;;;;;;;10.43;5.95;;;;;;;;;;6160844;23;20850;-84
2022/06/05 11:50:36;;;;;;;8.65;5.63;;;;;;;;;;6163456;23;20804;-84
2022/06/05 11:53:22;;;;;;;8.65;5.78;;;;;;;;;;6163045;23;20135;-83
2022/06/05 11:55:56;;;;;;;7.03;5.45;;;;;;;;;;6160460;23;20117;-84
2022/06/05 11:58:41;;;;;;;9.57;5.43;;;;;;;;;;6161620;23;20823;-84
2022/06/05 12:01:14;;;;;;;9.27;5.80;;;;;;;;;;6164172;23;20111;-84
2022/06/05 12:04:07;;;;;;;9.10;6.40;;;;;;;;;;6165066;23;20081;-84
2022/06/05 12:06:42;;;;;;;11.38;6.97;;;;;;;;;;6164437;23;20384;-84
2022/06/05 12:09:14;;;;;;;12.25;7.07;;;;;;;;;;6168190;23;20029;-84
2022/06/05 12:11:49;;;;;;;9.65;7.05;;;;;;;;;;6162913;23;20117;-84
2022/06/05 12:14:16;;;;;;;;;;;;;;;;;;6162384;23;20058;-84
2022/06/05 12:16:52;;;;;;;11.25;7.35;;;;;;;;;;6160695;23;44009;-83
2022/06/05 12:19:28;;;;;;;11.82;7.95;;;;;;;;;;6161685;23;20081;-84
2022/06/05 12:22:06;;;;;;;12.23;7.88;;;;;;;;;;6162278;23;20026;-84
2022/06/05 12:24:39;;;;;;;13.27;7.70;;;;;;;;;;6162879;23;20476;-85
2022/06/05 12:27:11;;;;;;;10.45;8.07;;;;;;;;;;6161288;23;20049;-85
2022/06/05 12:29:47;;;;;;;14.73;8.18;;;;;;;;;;6162763;23;20026;-85
2022/06/05 12:32:21;;;;;;;10.27;8.18;;;;;;;;;;6164207;23;20435;-84
2022/06/05 12:34:51;;;;;;;11.82;7.82;;;;;;;;;;6168738;23;20045;-83
2022/06/05 12:37:47;;;;;;;12.68;8.40;;;;;;;;;;6167476;23;20042;-83
2022/06/05 12:40:17;;;;;;;12.93;7.47;;;;;;;;;;6163162;23;20045;-83
2022/06/05 12:42:49;;;;;;;9.63;8.00;;;;;;;;;;6171601;23;20026;-84
2022/06/05 12:45:20;;;;;;;13.38;8.25;;;;;;;;;;6173223;23;20028;-84
2022/06/05 12:48:02;;;;;;;12.77;8.38;;;;;;;;;;6168414;23;20030;-85
2022/06/05 12:50:39;;;;;;;10.73;7.53;;;;;;;;;;6174445;23;20022;-84
2022/06/05 12:53:12;;;;;;;17.17;8.70;;;;;;;;;;6176884;23;20815;-85
2022/06/05 12:55:45;;;;;;;10.65;8.88;;;;;;;;;;6176821;23;20030;-85
2022/06/05 12:58:19;;;;;;;14.38;9.43;;;;;;;;;;6175982;23;20050;-84
2022/06/05 13:00:50;;;;;;;12.43;9.35;;;;;;;;;;6173414;23;20026;-83
2022/06/05 13:03:20;;;;;;;13.10;10.00;;;;;;;;;;6167958;23;20025;-83
2022/06/05 13:05:54;;;;;;;19.20;12.32;;;;;;;;;;6172220;23;20017;-83
2022/06/05 13:08:32;;;;;;;22.95;13.63;;;;;;;;;;6173726;23;20017;-84
2022/06/05 13:11:22;;;;;;;28.08;14.52;;;;;;;;;;6170453;23;20018;-83
2022/06/05 13:13:55;;;;;;;15.90;11.00;;;;;;;;;;6170689;23;20038;-82
2022/06/05 13:16:27;;;;;;;14.25;11.18;;;;;;;;;;6171636;23;20022;-82
2022/06/05 13:19:04;;;;;;;18.38;10.52;;;;;;;;;;6169531;23;20736;-81
2022/06/05 13:21:40;;;;;;;14.48;11.65;;;;;;;;;;6168634;23;20025;-81
2022/06/05 13:24:18;;;;;;;15.55;12.27;;;;;;;;;;6163591;23;20030;-83
2022/06/05 13:26:48;;;;;;;15.00;11.52;;;;;;;;;;6158391;23;20018;-83
2022/06/05 13:29:25;;;;;;;19.05;13.38;;;;;;;;;;6155226;23;20746;-83
2022/06/05 13:31:57;;;;;;;19.75;13.60;;;;;;;;;;6155998;23;20025;-83
2022/06/05 13:34:47;;;;;;;18.70;15.80;;;;;;;;;;6156698;23;20021;-83
2022/06/05 13:37:33;;;;;;;23.10;16.00;;;;;;;;;;6156997;23;20404;-83
2022/06/05 13:40:33;;;;;;;17.27;13.98;;;;;;;;;;6156872;23;20616;-83
2022/06/05 13:43:01;;;;;;;20.10;16.25;;;;;;;;;;6156746;23;20085;-83
2022/06/05 13:45:29;;;;;;;22.83;16.08;;;;;;;;;;6157686;23;20064;-82
2022/06/05 13:48:04;;;;;;;18.50;16.15;;;;;;;;;;6158652;23;20022;-82
2022/06/05 13:50:44;;;;;;;20.98;17.10;;;;;;;;;;6157091;23;20065;-82
2022/06/05 13:53:25;;;;;;;24.92;17.33;;;;;;;;;;6154769;23;20511;-82